Time;durP1;ratioP1;P1;durP2;ratioP2;P2;SDS_P1;SDS_P2;PMS_P1;PMS_P2;Temp;Humidity;BMP_temperature;BMP_pressure;BME280_temperature;BME280_humidity;BME280_pressure;Samples;Min_cycle;Max_cycle;Signal;HPM_P1;HPM_P2
2021/10/15 00:01:05;;;;;;;65.55;33.67;;;;;;;0.25;100.00;100006.77;1783280;80;20964;-57
2021/10/15 00:03:32;;;;;;;50.58;30.23;;;;;;;0.14;100.00;100004.01;1783957;80;21750;-57
2021/10/15 00:05:59;;;;;;;55.12;31.93;;;;;;;0.05;100.00;100001.12;1784092;80;20878;-57
2021/10/15 00:08:26;;;;;;;63.48;32.80;;;;;;;-0.03;100.00;100001.96;1783726;80;20903;-57
2021/10/15 00:10:52;;;;;;;58.25;30.85;;;;;;;-0.07;100.00;99993.27;1755931;80;20858;-57
2021/10/15 00:13:19;;;;;;;58.65;32.55;;;;;;;-0.12;100.00;99991.63;1783484;80;20858;-57
2021/10/15 00:15:46;;;;;;;57.00;31.75;;;;;;;-0.16;100.00;99995.13;1783946;80;21122;-58
2021/10/15 00:18:12;;;;;;;57.90;33.20;;;;;;;-0.14;100.00;99992.32;1770551;80;20901;-58
2021/10/15 00:20:39;;;;;;;55.60;31.73;;;;;;;-0.19;100.00;99992.02;1730031;82;21280;-58
2021/10/15 00:23:05;;;;;;;54.98;31.30;;;;;;;-0.27;100.00;99989.75;1747191;82;20917;-58
2021/10/15 00:25:32;;;;;;;54.00;30.88;;;;;;;-0.29;100.00;99987.77;1747054;81;20866;-58
2021/10/15 00:27:59;;;;;;;62.17;33.58;;;;;;;-0.28;100.00;99978.85;1740848;82;21131;-58
2021/10/15 00:30:25;;;;;;;59.53;34.27;;;;;;;-0.30;100.00;99983.47;1747153;82;20954;-58
2021/10/15 00:32:52;;;;;;;68.35;38.20;;;;;;;-0.32;100.00;99978.89;1746878;82;20875;-58
2021/10/15 00:35:18;;;;;;;80.40;39.25;;;;;;;-0.36;100.00;99983.36;1747016;81;21326;-58
2021/10/15 00:37:48;;;;;;;63.83;35.75;;;;;;;-0.43;100.00;99979.27;1746906;80;21068;-58
2021/10/15 00:40:13;;;;;;;69.82;36.30;;;;;;;-0.53;100.00;99983.42;1747240;82;21135;-58
2021/10/15 00:42:39;;;;;;;59.73;33.02;;;;;;;-0.56;100.00;99983.77;1744931;81;21330;-58
2021/10/15 00:45:07;;;;;;;61.80;32.85;;;;;;;-0.57;100.00;99983.43;1707181;82;21381;-58
2021/10/15 00:47:34;;;;;;;60.20;34.33;;;;;;;-0.53;100.00;99986.56;1735132;82;21000;-58
2021/10/15 00:50:01;;;;;;;62.53;33.25;;;;;;;-0.52;100.00;99982.92;1744147;80;20907;-60
2021/10/15 00:52:28;;;;;;;66.75;34.58;;;;;;;-0.52;100.00;99982.92;1722480;82;21180;-58
2021/10/15 00:54:54;;;;;;;61.15;33.42;;;;;;;-0.50;100.00;99987.03;1716915;83;20906;-58
2021/10/15 00:57:21;;;;;;;60.15;33.42;;;;;;;-0.52;100.00;99985.56;1716284;82;20909;-58
2021/10/15 00:59:47;;;;;;;60.17;33.40;;;;;;;-0.57;100.00;99979.98;1716320;83;21353;-58
2021/10/15 01:02:14;;;;;;;60.23;32.23;;;;;;;-0.54;100.00;99984.91;1686739;83;21473;-58
2021/10/15 01:04:40;;;;;;;67.42;34.63;;;;;;;-0.52;100.00;99978.46;1691697;82;21126;-58
2021/10/15 01:07:07;;;;;;;63.25;33.08;;;;;;;-0.51;100.00;99985.91;1722929;82;21417;-59
2021/10/15 01:09:35;;;;;;;62.50;32.63;;;;;;;-0.49;100.00;99978.62;1702668;81;21012;-58
2021/10/15 01:12:04;;;;;;;57.70;32.70;;;;;;;-0.53;100.00;99981.29;1759850;81;20877;-58
2021/10/15 01:14:32;;;;;;;57.40;33.25;;;;;;;-0.55;100.00;99980.13;1759929;81;21376;-58
2021/10/15 01:17:03;;;;;;;54.55;33.40;;;;;;;-0.51;100.00;99979.31;1704297;81;21074;-58
2021/10/15 01:19:30;;;;;;;64.10;35.43;;;;;;;-0.47;100.00;99984.05;1760257;81;20940;-57
2021/10/15 01:22:03;;;;;;;67.15;35.15;;;;;;;-0.46;100.00;99969.87;1760031;81;20896;-58
2021/10/15 01:24:29;;;;;;;58.28;30.85;;;;;;;-0.44;100.00;99973.67;1728290;81;20979;-59
2021/10/15 01:26:56;;;;;;;63.28;34.20;;;;;;;-0.46;100.00;99980.43;1759814;81;20908;-59
2021/10/15 01:29:25;;;;;;;55.85;31.93;;;;;;;-0.42;100.00;99970.34;1760038;81;21785;-59
2021/10/15 01:31:52;;;;;;;55.78;33.28;;;;;;;-0.47;100.00;99975.31;1728614;81;21039;-59
2021/10/15 01:34:18;;;;;;;60.80;30.90;;;;;;;-0.47;100.00;99972.67;1757264;81;20920;-59
2021/10/15 01:36:45;;;;;;;63.80;32.23;;;;;;;-0.48;100.00;99967.09;1715821;83;20960;-59
2021/10/15 01:39:11;;;;;;;60.12;35.30;;;;;;;-0.53;100.00;99964.97;1709164;83;21510;-59
2021/10/15 01:41:38;;;;;;;66.65;36.03;;;;;;;-0.55;100.00;99954.27;1687283;85;21182;-59
2021/10/15 01:44:06;;;;;;;76.30;35.58;;;;;;;-0.59;100.00;99964.82;1705935;81;20960;-59
2021/10/15 01:46:33;;;;;;;60.10;33.67;;;;;;;-0.64;100.00;99962.69;1696258;81;25183;-59
2021/10/15 01:48:59;;;;;;;61.18;31.42;;;;;;;-0.64;100.00;99962.69;1760074;81;20908;-59
2021/10/15 01:51:26;;;;;;;57.25;32.30;;;;;;;-0.66;100.00;99957.61;1747238;81;20877;-59
2021/10/15 01:53:52;;;;;;;66.57;33.18;;;;;;;-0.65;100.00;99953.97;1729176;81;22262;-59
2021/10/15 01:56:19;;;;;;;63.92;34.00;;;;;;;-0.65;100.00;99967.15;1741370;80;20959;-59
2021/10/15 01:58:46;;;;;;;61.53;37.58;;;;;;;-0.68;100.00;99963.55;1753706;80;21390;-59
2021/10/15 02:01:12;;;;;;;67.30;35.65;;;;;;;-0.68;100.00;99966.18;1753369;80;21358;-59
2021/10/15 02:03:40;;;;;;;65.60;36.53;;;;;;;-0.70;100.00;99962.07;1753388;80;20899;-59
2021/10/15 02:06:07;;;;;;;64.77;35.23;;;;;;;-0.78;100.00;99968.20;1762059;80;21091;-59
2021/10/15 02:08:34;;;;;;;68.15;34.67;;;;;;;-0.77;100.00;99963.23;1765809;80;20822;-59
2021/10/15 02:11:00;;;;;;;59.85;32.08;;;;;;;-0.76;100.00;99962.73;1753723;80;20921;-59
2021/10/15 02:13:27;;;;;;;58.35;31.77;;;;;;;-0.74;100.00;99962.08;1774345;80;20965;-59
2021/10/15 02:15:53;;;;;;;54.55;30.27;;;;;;;-0.69;100.00;99962.38;1761514;80;20893;-59
2021/10/15 02:18:20;;;;;;;64.12;35.48;;;;;;;-0.65;100.00;99963.20;1756945;80;21117;-59
2021/10/15 02:20:46;;;;;;;54.98;31.73;;;;;;;-0.59;100.00;99962.19;1758227;80;20901;-59
2021/10/15 02:23:13;;;;;;;64.62;33.88;;;;;;;-0.60;100.00;99952.14;1776947;80;20948;-59
2021/10/15 02:25:40;;;;;;;62.73;35.98;;;;;;;-0.59;100.00;99960.36;1774196;80;20865;-59
2021/10/15 02:28:07;;;;;;;62.90;34.18;;;;;;;-0.55;100.00;99956.91;1782305;80;20847;-59
2021/10/15 02:30:33;;;;;;;64.62;36.15;;;;;;;-0.46;100.00;99948.78;1784657;80;21129;-59
2021/10/15 02:33:02;;;;;;;68.55;37.17;;;;;;;-0.40;100.00;99954.36;1782337;80;20936;-60
2021/10/15 02:35:29;;;;;;;63.47;34.13;;;;;;;-0.41;100.00;99943.50;1782632;80;20868;-59
2021/10/15 02:38:01;;;;;;;67.62;37.55;;;;;;;-0.45;100.00;99943.82;1782358;80;20964;-59
2021/10/15 02:40:29;;;;;;;77.85;38.85;;;;;;;-0.42;100.00;99940.02;1782413;80;20954;-58
2021/10/15 02:42:57;;;;;;;60.35;34.58;;;;;;;-0.44;100.00;99944.16;1782403;80;21081;-58
2021/10/15 02:45:24;;;;;;;71.42;34.13;;;;;;;-0.48;100.00;99946.81;1764616;80;20898;-59
2021/10/15 02:47:51;;;;;;;61.90;37.53;;;;;;;-0.51;100.00;99938.44;1753236;81;20960;-58
2021/10/15 02:50:17;;;;;;;65.35;33.50;;;;;;;-0.50;100.00;99947.98;1753151;81;20964;-59
2021/10/15 02:52:44;;;;;;;71.62;36.63;;;;;;;-0.49;100.00;99946.50;1773580;80;20976;-58
2021/10/15 02:55:10;;;;;;;66.25;35.52;;;;;;;-0.44;100.00;99944.67;1782093;80;21104;-59
2021/10/15 02:57:37;;;;;;;72.90;36.25;;;;;;;-0.44;100.00;99942.84;1764917;80;20913;-58
2021/10/15 03:00:06;;;;;;;81.10;41.33;;;;;;;-0.45;100.00;99941.69;1755393;81;20921;-58
2021/10/15 03:02:32;;;;;;;99.72;47.33;;;;;;;-0.45;100.00;99936.41;1755830;81;20925;-58
2021/10/15 03:05:00;;;;;;;135.55;62.67;;;;;;;-0.48;100.00;99925.72;1757567;80;20869;-58
2021/10/15 03:07:27;;;;;;;122.57;58.53;;;;;;;-0.48;100.00;99931.49;1754940;81;21131;-58
2021/10/15 03:09:54;;;;;;;102.58;50.00;;;;;;;-0.50;100.00;99935.61;1755354;81;20865;-58
2021/10/15 03:12:20;;;;;;;115.62;51.65;;;;;;;-0.51;100.00;99933.98;1755544;81;20834;-58
2021/10/15 03:14:48;;;;;;;91.60;43.10;;;;;;;-0.48;100.00;99934.13;1755675;81;20873;-58
2021/10/15 03:17:15;;;;;;;76.20;37.88;;;;;;;-0.47;100.00;99937.89;1755381;81;21020;-58
2021/10/15 03:19:42;;;;;;;70.20;34.95;;;;;;;-0.41;100.00;99944.81;1755409;81;21352;-58
2021/10/15 03:22:08;;;;;;;72.60;33.55;;;;;;;-0.41;100.00;99937.72;1757322;80;21622;-58
2021/10/15 03:24:35;;;;;;;70.00;34.50;;;;;;;-0.40;100.00;99937.22;1755481;81;20988;-58
2021/10/15 03:27:02;;;;;;;77.45;36.35;;;;;;;-0.37;100.00;99937.67;1778780;80;20886;-58
2021/10/15 03:29:29;;;;;;;69.32;33.25;;;;;;;-0.34;100.00;99939.99;1755581;80;21432;-58
2021/10/15 03:31:56;;;;;;;66.50;33.78;;;;;;;-0.30;100.00;99937.31;1786567;80;21093;-58
2021/10/15 03:34:22;;;;;;;62.95;30.65;;;;;;;-0.25;100.00;99940.75;1786528;80;20854;-58
2021/10/15 03:36:49;;;;;;;58.60;32.60;;;;;;;-0.24;100.00;99932.67;1786515;80;20944;-58
2021/10/15 03:39:15;;;;;;;65.40;35.05;;;;;;;-0.22;100.00;99929.88;1786385;80;20893;-58
2021/10/15 03:41:42;;;;;;;72.40;34.40;;;;;;;-0.24;100.00;99930.54;1782783;80;20878;-58
2021/10/15 03:44:09;;;;;;;65.78;35.43;;;;;;;-0.23;100.00;99929.53;1771948;80;21121;-58
2021/10/15 03:46:35;;;;;;;58.13;31.93;;;;;;;-0.24;100.00;99934.50;1786495;80;20897;-58
2021/10/15 03:49:02;;;;;;;60.98;34.55;;;;;;;-0.27;100.00;99934.82;1770670;80;20865;-59
2021/10/15 03:51:28;;;;;;;71.07;35.92;;;;;;;-0.38;100.00;99933.41;1753799;81;20972;-58
2021/10/15 03:53:55;;;;;;;75.85;37.13;;;;;;;-0.39;100.00;99933.09;1753716;81;20920;-58
2021/10/15 03:56:21;;;;;;;70.28;36.58;;;;;;;-0.34;100.00;99939.99;1762172;80;21087;-58
2021/10/15 03:58:49;;;;;;;60.83;35.70;;;;;;;-0.35;100.00;99938.33;1784026;79;20948;-58
2021/10/15 04:01:15;;;;;;;68.35;33.65;;;;;;;-0.34;100.00;99938.67;1765812;80;21467;-58
2021/10/15 04:03:43;;;;;;;70.25;35.55;;;;;;;-0.36;100.00;99934.06;1753064;81;20901;-58
2021/10/15 04:06:09;;;;;;;75.32;37.23;;;;;;;-0.45;100.00;99926.67;1772651;80;20961;-58
2021/10/15 04:08:36;;;;;;;69.97;37.20;;;;;;;-0.50;100.00;99929.52;1753480;81;21870;-58
2021/10/15 04:11:04;;;;;;;73.25;38.00;;;;;;;-0.53;100.00;99925.91;1755568;80;20932;-58
2021/10/15 04:13:32;;;;;;;76.30;38.48;;;;;;;-0.53;100.00;99931.19;1753227;81;20972;-58
2021/10/15 04:16:01;;;;;;;77.78;40.40;;;;;;;-0.56;100.00;99929.72;1767545;80;20890;-58
2021/10/15 04:18:29;;;;;;;78.42;41.18;;;;;;;-0.56;100.00;99927.08;1757405;80;21011;-59
2021/10/15 04:20:55;;;;;;;76.47;40.03;;;;;;;-0.56;100.00;99929.72;1753631;81;21119;-58
2021/10/15 04:23:23;;;;;;;74.05;40.12;;;;;;;-0.57;100.00;99932.02;1754530;80;20913;-59
2021/10/15 04:25:50;;;;;;;78.15;41.58;;;;;;;-0.58;100.00;99938.80;1753522;81;20865;-58
2021/10/15 04:28:18;;;;;;;74.77;38.85;;;;;;;-0.62;100.00;99950.16;1753343;81;20916;-59
2021/10/15 04:30:47;;;;;;;104.53;41.88;;;;;;;-0.62;100.00;99948.03;1753327;81;20901;-59
2021/10/15 04:33:14;;;;;;;74.35;38.05;;;;;;;-0.58;100.00;99948.02;1751261;81;21124;-58
2021/10/15 04:35:40;;;;;;;72.58;39.73;;;;;;;-0.58;100.00;99946.20;1752963;80;20981;-58
2021/10/15 04:38:07;;;;;;;62.05;35.70;;;;;;;-0.59;100.00;99943.73;1784267;80;20941;-58
2021/10/15 04:40:34;;;;;;;58.08;35.20;;;;;;;-0.60;100.00;99940.28;1784336;80;20862;-58
2021/10/15 04:43:00;;;;;;;62.15;34.45;;;;;;;-0.59;100.00;99941.91;1784449;80;20881;-58
2021/10/15 04:45:27;;;;;;;62.30;33.18;;;;;;;-0.56;100.00;99946.05;1784792;80;21093;-59
2021/10/15 04:47:53;;;;;;;60.35;32.15;;;;;;;-0.52;100.00;99943.37;1784383;80;21665;-59
2021/10/15 04:50:20;;;;;;;66.65;33.73;;;;;;;-0.48;100.00;99948.63;1782397;80;20862;-59
2021/10/15 04:52:46;;;;;;;58.28;31.75;;;;;;;-0.48;100.00;99950.77;1755669;80;20862;-58
2021/10/15 04:55:13;;;;;;;65.45;34.33;;;;;;;-0.42;100.00;99951.06;1753907;81;20928;-58
2021/10/15 04:57:40;;;;;;;70.52;34.55;;;;;;;-0.35;100.00;99955.48;1752953;80;21108;-58
2021/10/15 05:00:08;;;;;;;66.45;38.13;;;;;;;-0.21;100.00;99955.25;1752199;82;20949;-58
2021/10/15 05:02:40;;;;;;;80.25;39.30;;;;;;;-0.06;100.00;99954.00;1752758;82;21316;-58
2021/10/15 05:05:08;;;;;;;74.20;38.33;;;;;;;0.07;100.00;99954.73;1752643;80;20957;-59
2021/10/15 05:07:36;;;;;;;68.42;36.20;;;;;;;0.23;100.00;99947.21;1774611;80;20841;-59
2021/10/15 05:10:04;;;;;;;73.17;37.40;;;;;;;0.35;100.00;99944.47;1759091;80;21090;-58
2021/10/15 05:16:52;;;;;;;106.17;62.27;;;;;;;0.55;100.00;99941.64;1752852;82;20890;-57
2021/10/15 05:23:26;;;;;;;79.75;37.42;;;;;;;0.94;100.00;99941.93;1752533;82;20897;-59
2021/10/15 05:29:51;;;;;;;63.33;31.80;;;;;;;1.22;100.00;99955.83;1752384;82;20933;-59
2021/10/15 05:36:27;;;;;;;51.37;29.40;;;;;;;1.63;100.00;99952.69;1752682;82;20966;-57
2021/10/15 05:42:53;;;;;;;47.67;27.40;;;;;;;2.07;100.00;99959.69;1752705;82;20949;-59
2021/10/15 05:49:29;;;;;;;46.02;26.10;;;;;;;2.52;100.00;99956.32;1752425;81;20940;-59
2021/10/15 06:01:07;;;;;;;40.35;26.75;;;;;;;3.48;100.00;99949.91;1786949;79;20944;-58
2021/10/15 06:03:33;;;;;;;44.23;24.57;;;;;;;3.76;100.00;99948.98;1787048;80;20901;-58
2021/10/15 06:14:22;;;;;;;39.60;24.63;;;;;;;4.56;100.00;99959.73;1756135;80;20947;-59
2021/10/15 06:16:52;;;;;;;40.73;24.57;;;;;;;4.75;100.00;99959.43;1769356;79;20854;-60
2021/10/15 06:19:20;;;;;;;39.38;25.68;;;;;;;5.08;100.00;99958.07;1756819;81;21396;-60
2021/10/15 06:21:47;;;;;;;;;;;;;;;5.41;100.00;99958.48;1758438;80;21309;-59
2021/10/15 06:24:13;;;;;;;100.25;46.05;;;;;;;5.71;100.00;99962.27;1751204;80;21259;-60
2021/10/15 06:26:40;;;;;;;117.80;55.33;;;;;;;5.71;100.00;99963.61;1731628;80;20889;-60
2021/10/15 06:29:07;;;;;;;100.67;51.25;;;;;;;6.07;100.00;99966.72;1751861;82;20837;-59
2021/10/15 06:31:35;;;;;;;103.65;54.73;;;;;;;5.99;100.00;99953.95;1744620;80;20922;-59
2021/10/15 06:34:02;;;;;;;144.47;70.25;;;;;;;6.39;100.00;99965.72;1751181;82;20917;-59
2021/10/15 06:36:29;;;;;;;118.87;54.03;;;;;;;6.56;100.00;99962.49;1741419;82;21123;-59
2021/10/15 06:38:56;;;;;;;47.03;25.40;;;;;;;6.69;100.00;99958.41;1750454;80;20990;-60
2021/10/15 06:41:23;;;;;;;89.60;48.80;;;;;;;6.46;100.00;99958.98;1770007;81;20891;-60
2021/10/15 06:43:49;;;;;;;65.87;28.47;;;;;;;6.78;100.00;99966.41;1751544;81;21349;-59
2021/10/15 06:46:16;;;;;;;50.58;26.82;;;;;;;6.67;100.00;99951.12;1752389;80;20857;-60
2021/10/15 06:48:42;;;;;;;49.05;26.17;;;;;;;6.95;100.00;99969.86;1745828;80;21023;-59
2021/10/15 06:51:09;;;;;;;38.08;18.45;;;;;;;7.03;100.00;99961.06;1741084;80;20963;-59
2021/10/15 06:53:36;;;;;;;30.23;19.35;;;;;;;7.13;100.00;99965.06;1720719;83;20922;-60
2021/10/15 06:56:02;;;;;;;52.80;33.70;;;;;;;7.41;100.00;99957.89;1739120;80;20959;-59
2021/10/15 06:58:32;;;;;;;31.60;21.62;;;;;;;7.53;100.00;99965.98;1754689;80;20909;-60
2021/10/15 07:00:58;;;;;;;48.42;29.77;;;;;;;7.89;100.00;99964.59;1751225;80;22293;-61
2021/10/15 07:03:25;;;;;;;44.38;29.37;;;;;;;7.89;100.00;99973.95;1755134;80;20952;-60
2021/10/15 07:05:51;;;;;;;35.00;23.32;;;;;;;8.09;100.00;99972.34;1759811;80;20999;-59
2021/10/15 07:08:18;;;;;;;53.75;27.02;;;;;;;8.18;100.00;99969.34;1767344;79;20989;-59
2021/10/15 07:10:44;;;;;;;33.35;23.83;;;;;;;8.49;100.00;99959.74;1775521;79;20913;-59
2021/10/15 07:13:14;;;;;;;22.93;15.08;;;;;;;8.43;100.00;99966.03;1745716;82;21103;-59
2021/10/15 07:15:43;;;;;;;32.65;23.50;;;;;;;8.10;100.00;99955.25;1720489;82;20941;-59
2021/10/15 07:18:10;;;;;;;32.55;24.32;;;;;;;8.51;100.00;99960.33;1752177;82;20974;-60
2021/10/15 07:20:36;;;;;;;25.60;18.10;;;;;;;8.69;100.00;99971.46;1753584;80;21008;-59
2021/10/15 07:23:03;;;;;;;32.08;19.45;;;;;;;8.74;100.00;99971.58;1736879;81;21094;-59
2021/10/15 07:25:30;;;;;;;50.45;29.48;;;;;;;8.89;100.00;99952.41;1747870;80;21093;-59
2021/10/15 07:27:56;;;;;;;24.40;17.95;;;;;;;9.06;100.00;99965.08;1716769;83;21358;-59
2021/10/15 07:30:22;;;;;;;21.15;12.25;;;;;;;9.30;100.00;99961.86;1744304;81;21380;-59
2021/10/15 07:32:52;;;;;;;41.90;21.23;;;;;;;9.10;100.00;99955.02;1721274;81;20864;-60
2021/10/15 07:35:18;;;;;;;45.35;23.85;;;;;;;9.38;100.00;99961.48;1726128;81;21453;-60
2021/10/15 07:37:45;;;;;;;35.65;20.97;;;;;;;9.56;100.00;99956.52;1764804;79;21086;-60
2021/10/15 07:40:13;;;;;;;21.17;15.08;;;;;;;9.77;100.00;99968.45;1697346;82;20946;-59
2021/10/15 07:42:39;;;;;;;22.35;13.48;;;;;;;9.78;100.00;99967.41;1738976;80;20893;-59
2021/10/15 07:45:07;;;;;;;22.10;15.78;;;;;;;9.62;100.00;99958.23;1753735;80;20986;-59
2021/10/15 07:47:33;;;;;;;22.50;17.10;;;;;;;9.52;100.00;99961.52;1743484;82;21481;-59
2021/10/15 07:50:00;;;;;;;20.48;12.63;;;;;;;9.99;100.00;99968.07;1743623;80;21139;-60
2021/10/15 07:52:26;;;;;;;19.27;12.88;;;;;;;9.92;100.00;99962.56;1744392;80;20870;-59
2021/10/15 07:54:53;;;;;;;22.02;15.83;;;;;;;10.00;98.31;99953.63;1754061;80;21060;-60
2021/10/15 07:57:19;;;;;;;25.92;17.40;;;;;;;9.99;98.35;99965.92;1762694;80;20925;-59
2021/10/15 07:59:46;;;;;;;26.90;15.75;;;;;;;10.28;96.55;99965.41;1765152;79;21026;-59
2021/10/15 08:02:12;;;;;;;24.47;17.05;;;;;;;10.58;93.96;99957.58;1754354;81;21184;-60
2021/10/15 08:04:41;;;;;;;23.47;13.93;;;;;;;10.43;91.24;99954.93;1765623;80;20991;-59
2021/10/15 08:07:09;;;;;;;21.15;14.25;;;;;;;10.50;92.29;99962.30;1729867;81;20881;-61
2021/10/15 08:09:35;;;;;;;14.90;11.25;;;;;;;10.57;91.12;99953.28;1749779;80;20942;-59
2021/10/15 08:12:05;;;;;;;21.93;14.07;;;;;;;10.59;90.03;99960.04;1763969;80;20952;-59
2021/10/15 08:14:32;;;;;;;22.00;14.87;;;;;;;10.65;90.33;99959.05;1737521;81;21091;-60
2021/10/15 08:16:59;;;;;;;28.27;18.90;;;;;;;10.75;89.17;99963.77;1764612;80;20965;-61
2021/10/15 08:19:25;;;;;;;22.10;14.78;;;;;;;10.88;88.79;99960.77;1765058;80;21014;-60
2021/10/15 08:21:52;;;;;;;25.60;16.05;;;;;;;10.82;88.08;99968.44;1762521;81;20929;-61
2021/10/15 08:24:19;;;;;;;119.93;62.40;;;;;;;11.11;86.85;99960.28;1761110;79;21116;-60
2021/10/15 08:26:45;;;;;;;15.35;10.88;;;;;;;11.65;84.12;99955.60;1763199;79;22878;-59
2021/10/15 08:29:12;;;;;;;40.30;24.98;;;;;;;11.63;81.76;99938.91;1759479;80;20886;-60
2021/10/15 08:31:38;;;;;;;41.42;25.48;;;;;;;11.68;81.39;99957.24;1746995;80;20858;-60
2021/10/15 08:34:07;;;;;;;47.27;26.77;;;;;;;11.22;81.87;99947.78;1739643;81;20944;-61
2021/10/15 08:36:34;;;;;;;;;;;;;;;11.71;80.26;99949.20;1736692;82;20896;-61
2021/10/15 08:39:00;;;;;;;25.52;17.73;;;;;;;11.56;79.02;99941.77;1753460;80;21119;-59
2021/10/15 08:41:27;;;;;;;16.57;11.33;;;;;;;11.61;78.93;99943.71;1742000;80;20956;-60
2021/10/15 08:43:57;;;;;;;22.80;15.50;;;;;;;11.76;75.73;99942.03;1748106;80;21031;-59
2021/10/15 08:46:25;;;;;;;23.83;13.68;;;;;;;11.74;76.20;99946.03;1748987;80;20913;-60
2021/10/15 08:48:52;;;;;;;23.98;15.35;;;;;;;11.77;75.80;99942.30;1751178;80;21052;-60
2021/10/15 08:51:21;;;;;;;80.72;32.23;;;;;;;11.86;74.42;99927.08;1727655;82;21143;-60
2021/10/15 08:53:55;;;;;;;16.25;10.28;;;;;;;11.76;73.60;99940.69;1709826;84;21488;-59
2021/10/15 08:56:27;;;;;;;17.90;13.32;;;;;;;11.64;73.57;99940.55;1748026;80;21433;-59
2021/10/15 08:58:59;;;;;;;20.50;13.45;;;;;;;11.66;73.31;99906.12;1748544;80;21403;-61
2021/10/15 09:01:28;;;;;;;20.62;14.15;;;;;;;12.02;72.62;99934.25;1747202;80;21410;-60
2021/10/15 09:03:59;;;;;;;;;;;;;;;12.03;72.45;99925.13;1751654;82;21123;-60
2021/10/15 09:06:25;;;;;;;14.65;11.22;;;;;;;12.30;71.31;99921.07;1779851;80;20116;-61
2021/10/15 09:08:55;;;;;;;18.48;12.37;;;;;;;12.31;71.55;99920.53;1773443;80;20951;-61
2021/10/15 09:11:42;;;;;;;15.72;11.00;;;;;;;12.41;71.54;99923.30;1748352;82;21097;-61
2021/10/15 09:14:24;;;;;;;14.00;9.70;;;;;;;12.86;69.12;99930.09;1749442;80;20884;-61
2021/10/15 09:17:05;;;;;;;16.77;11.88;;;;;;;12.75;67.70;99919.80;1749323;82;21736;-61
2021/10/15 09:19:40;;;;;;;17.12;9.18;;;;;;;13.11;67.95;99923.26;1746472;82;21370;-62
2021/10/15 09:22:30;;;;;;;19.85;13.93;;;;;;;13.20;65.54;99929.75;1742821;82;20907;-60
2021/10/15 09:25:02;;;;;;;14.40;10.20;;;;;;;12.94;66.91;99926.92;1741559;81;20938;-61
2021/10/15 09:27:38;;;;;;;24.80;12.98;;;;;;;13.17;66.36;99931.09;1776406;80;21032;-60
2021/10/15 09:30:13;;;;;;;13.48;10.82;;;;;;;13.43;65.11;99917.23;1725941;81;21123;-59
2021/10/15 09:32:44;;;;;;;15.38;10.43;;;;;;;13.20;65.38;99927.05;1762959;80;20893;-60
2021/10/15 09:35:15;;;;;;;13.20;11.25;;;;;;;13.54;65.33;99927.51;1764548;80;20980;-60
2021/10/15 09:37:43;;;;;;;16.73;12.65;;;;;;;13.47;64.28;99925.08;1770333;79;20942;-59
2021/10/15 09:40:19;;;;;;;25.57;15.18;;;;;;;13.81;63.49;99927.88;1789661;79;20945;-60
2021/10/15 09:42:54;;;;;;;11.80;9.15;;;;;;;13.86;62.67;99926.53;1753087;79;21834;-58
2021/10/15 09:45:30;;;;;;;13.10;9.13;;;;;;;13.42;62.56;99918.83;1736782;82;21057;-58
2021/10/15 09:47:59;;;;;;;19.87;12.47;;;;;;;13.41;61.49;99913.18;1764572;80;21056;-60
2021/10/15 09:50:31;;;;;;;14.13;10.00;;;;;;;13.82;61.46;99920.87;1760776;79;20979;-60
2021/10/15 09:53:01;;;;;;;17.67;11.55;;;;;;;13.99;61.40;99918.45;1741964;80;21001;-62
2021/10/15 09:55:39;;;;;;;13.70;6.58;;;;;;;14.07;60.54;99909.30;1782961;80;21117;-63
2021/10/15 09:58:19;;;;;;;14.80;7.45;;;;;;;13.74;60.30;99907.88;1783910;79;21006;-64
2021/10/15 10:00:50;;;;;;;11.38;9.00;;;;;;;13.57;59.67;99903.25;1784480;80;20932;-59
2021/10/15 10:03:19;;;;;;;13.00;9.68;;;;;;;13.63;59.94;99904.36;1773109;80;20953;-61
2021/10/15 10:05:45;;;;;;;12.07;8.65;;;;;;;13.96;57.66;99906.86;1779540;79;21438;-61
2021/10/15 10:08:12;;;;;;;12.18;7.35;;;;;;;14.26;57.40;99899.34;1771908;80;21063;-62
2021/10/15 10:10:40;;;;;;;8.73;5.10;;;;;;;14.18;54.30;99903.37;1750283;80;20984;-60
2021/10/15 10:13:10;;;;;;;14.03;7.67;;;;;;;13.73;54.50;99901.67;1785585;80;21406;-60
2021/10/15 10:15:41;;;;;;;11.45;8.08;;;;;;;14.03;54.94;99894.72;1769875;80;20923;-60
2021/10/15 10:18:32;;;;;;;10.10;7.75;;;;;;;14.06;55.36;99887.97;1751320;82;21385;-60
2021/10/15 10:21:07;;;;;;;13.40;7.53;;;;;;;13.83;55.86;99893.34;1758500;81;22024;-59
2021/10/15 10:23:54;;;;;;;11.75;8.78;;;;;;;14.06;55.07;99887.45;1759193;79;21421;-59
2021/10/15 10:26:23;;;;;;;17.98;9.40;;;;;;;14.62;53.13;99888.55;1743576;79;21034;-60
2021/10/15 10:29:05;;;;;;;21.23;11.18;;;;;;;14.75;51.92;99899.61;1785400;80;21364;-59
2021/10/15 10:31:33;;;;;;;15.80;11.83;;;;;;;14.26;50.06;99888.55;1748517;80;20999;-60
2021/10/15 10:34:05;;;;;;;8.90;6.85;;;;;;;14.33;50.14;99892.59;1748297;80;21171;-61
2021/10/15 10:36:34;;;;;;;11.45;6.28;;;;;;;14.33;50.77;99887.71;1740894;82;20968;-62
2021/10/15 10:39:26;;;;;;;11.80;6.65;;;;;;;14.52;51.10;99886.08;1735460;81;21435;-60
2021/10/15 10:42:20;;;;;;;13.55;7.05;;;;;;;14.26;50.94;99882.60;1736646;82;21028;-61
2021/10/15 10:44:58;;;;;;;8.30;5.60;;;;;;;14.25;50.36;99872.86;1740510;81;20988;-60
2021/10/15 10:47:26;;;;;;;8.53;6.70;;;;;;;14.32;49.83;99862.61;1745449;81;21122;-60
2021/10/15 10:50:06;;;;;;;8.15;6.05;;;;;;;14.55;48.94;99875.30;1749460;82;21426;-61
2021/10/15 10:52:55;;;;;;;13.50;7.65;;;;;;;14.64;48.82;99875.03;1755731;80;20917;-58
2021/10/15 10:55:39;;;;;;;14.53;8.08;;;;;;;14.68;49.08;99877.47;1745693;81;20939;-61
2021/10/15 10:58:35;;;;;;;8.65;4.53;;;;;;;14.46;49.67;99872.33;1772146;80;20858;-59
2021/10/15 11:01:25;;;;;;;13.08;8.68;;;;;;;14.40;49.50;99871.24;1748256;82;21088;-59
2021/10/15 11:03:51;;;;;;;;;;;;;;;14.51;49.87;99872.87;1752625;81;20949;-59
2021/10/15 11:06:17;;;;;;;11.45;8.48;;;;;;;14.38;49.57;99864.78;1749934;82;20417;-59
2021/10/15 11:08:46;;;;;;;10.72;6.17;;;;;;;14.39;50.26;99868.29;1725043;82;20973;-59
2021/10/15 11:11:22;;;;;;;;;;;;;;;14.22;50.26;99864.52;1729741;82;21044;-59
2021/10/15 11:13:48;;;;;;;10.93;7.10;;;;;;;14.48;50.17;99870.17;1743763;80;21211;-59
2021/10/15 11:16:23;;;;;;;9.63;6.92;;;;;;;14.29;50.56;99856.41;1751364;82;20962;-60
2021/10/15 11:18:49;;;;;;;11.25;6.55;;;;;;;14.21;50.14;99846.67;1751070;82;21421;-60
2021/10/15 11:21:17;;;;;;;9.43;6.40;;;;;;;14.21;49.96;99856.95;1750686;82;20955;-58
2021/10/15 11:23:45;;;;;;;7.30;5.50;;;;;;;14.07;49.21;99835.63;1748290;81;21439;-58
2021/10/15 11:26:11;;;;;;;13.68;7.33;;;;;;;14.06;49.51;99845.62;1745369;80;21129;-61
2021/10/15 11:28:39;;;;;;;13.30;8.20;;;;;;;14.45;49.45;99846.39;1745154;82;20974;-59
2021/10/15 11:31:12;;;;;;;11.35;6.78;;;;;;;14.45;48.18;99840.98;1748033;81;21501;-59
2021/10/15 11:33:39;;;;;;;9.50;6.80;;;;;;;14.50;48.23;99834.77;1754480;80;20913;-59
2021/10/15 11:36:08;;;;;;;11.78;7.15;;;;;;;14.64;47.01;99822.90;1757790;80;20942;-59
2021/10/15 11:38:34;;;;;;;9.90;5.90;;;;;;;14.50;47.79;99838.30;1712993;83;21125;-58
2021/10/15 11:41:09;;;;;;;13.88;6.60;;;;;;;14.37;47.47;99826.14;1712055;83;21515;-58
2021/10/15 11:43:39;;;;;;;13.25;7.30;;;;;;;14.53;47.50;99835.08;1715318;81;20941;-59
2021/10/15 11:46:15;;;;;;;12.13;6.67;;;;;;;14.57;48.01;99835.33;1757334;80;20873;-59
2021/10/15 11:48:48;;;;;;;9.63;7.17;;;;;;;14.91;46.99;99837.41;1717615;82;21017;-58
2021/10/15 11:51:24;;;;;;;13.40;7.70;;;;;;;14.75;46.72;99824.50;1714710;82;21129;-59
2021/10/15 11:53:54;;;;;;;14.40;9.08;;;;;;;15.06;47.19;99819.78;1716172;81;21068;-59
2021/10/15 11:56:26;;;;;;;16.27;9.18;;;;;;;14.83;46.18;99819.88;1757773;80;21063;-59
2021/10/15 11:58:55;;;;;;;35.78;20.97;;;;;;;14.95;46.03;99812.27;1750876;80;20975;-59
2021/10/15 12:01:26;;;;;;;48.78;21.75;;;;;;;14.79;46.17;99820.95;1747711;80;20998;-59
2021/10/15 12:04:10;;;;;;;24.98;14.68;;;;;;;14.48;46.82;99806.70;1737771;81;21121;-59
2021/10/15 12:06:45;;;;;;;38.65;21.12;;;;;;;14.54;46.80;99816.98;1739925;82;20966;-59